• Join FlightAware (Why Join?)
  • Login
  • US Flag 
05:51AM EDT


 

Airport Tracker/Info


-or-


 

Live Flight TrackerFlight Track Log ✈ SWA440 ✈ 21-Apr-2013 ✈ KMDW - KCLE

Flight Track Log - Related Links

Times and Time Zones

All times are in EDT time to prevent confusion due to time zone crossing. See the SWA440 flight status page for this flight to view local times or setup timezone preferences in your user account.

Time Position Orientation Groundspeed Altitude Reporting Facility
EDT Latitude Longitude Course Direction KTS MPH feet Rate Location/Type
09:16AM 41.7833 -87.7333 98° East 138 159 2,500  Level Chicago TRACON
09:17AM 41.7833 -87.6500 90° East 214 246 3,100 1,200 Climbing Chicago TRACON
09:18AM 41.7833 -87.5667 90° East 261 300 5,000 1,380 Climbing Chicago TRACON
09:19AM 41.7875 -87.5550 64° Northeast 234 269 4,900  Descending Chicago Center
09:20AM 41.7825 -87.4583 94° East 253 291 5,000 1,980 Climbing Chicago Center
09:21AM 41.7764 -87.3383 94° East 268 308 9,000 4,320 Climbing Chicago Center
09:22AM 41.7580 -87.1215 98° East  Level FlightAware Approximate
09:22AM 41.7692 -87.2231 95° East 304 350 13,900  Level Chicago Center
09:23AM 41.7633 -87.1017 94° East 324 373 18,100 3,780 Climbing Chicago Center
09:24AM 41.7622 -86.9686 91° East 353 406 21,700 3,360 Climbing Chicago Center
09:25AM 41.7639 -86.8300 89° East 371 427 25,000 3,180 Climbing Chicago Center
09:26AM 41.7653 -86.6692 89° East 388 447 28,300 2,580 Climbing Chicago Center
09:27AM 41.7667 -86.5078 89° East 432 497 30,300 2,220 Climbing Chicago Center
09:28AM 41.7678 -86.3433 89° East 442 509 32,900 1,260 Climbing Chicago Center
09:29AM 41.7833 -86.1814 83° East 441 507 33,000  Climbing Chicago Center
09:30AM 41.8008 -86.0225 82° East 433 498 33,000  Level Chicago Center
09:31AM 41.8181 -85.8622 82° East 434 499 33,000  Level Chicago Center
09:32AM 41.8347 -85.7008 82° East 435 501 33,000  Level Chicago Center
09:33AM 41.8528 -85.5386 81° East 436 502 33,000  Level Chicago Center
09:34AM 41.8689 -85.3756 82° East 435 501 33,000  Level Chicago Center
09:35AM 41.8908 -85.1778 81° East 436 502 33,000  Level Cleveland Center
09:36AM 41.9078 -85.0144 82° East 436 502 33,000  Level Cleveland Center
09:37AM 41.9222 -84.8533 83° East 441 507 33,000  Level Cleveland Center
09:38AM 41.9386 -84.6897 82° East 441 507 33,000  Level Cleveland Center
09:39AM 41.9525 -84.5314 83° East 441 507 33,000  Level Cleveland Center
09:40AM 41.9703 -84.3706 81° East 441 507 33,000  Level Cleveland Center
09:41AM 41.9825 -84.1897 85° East 441 507 33,000  Level Cleveland Center
09:42AM 41.9958 -84.0283 84° East 441 507 33,000  Level Cleveland Center
09:43AM 42.0108 -83.8669 83° East 441 507 33,000 -540 Level Cleveland Center
09:44AM 42.0239 -83.7056 84° East 441 507 32,000 -1,860 Descending Cleveland Center
09:45AM 42.0386 -83.5411 83° East 441 507 29,300 -2,520 Descending Cleveland Center
09:46AM 42.0406 -83.3764 89° East 441 507 27,000 -2,280 Descending Cleveland Center
09:47AM 42.0233 -83.2219 98° East 429 494 24,800 -2,100 Descending Cleveland Center
09:48AM 42.0081 -83.0731 98° East 412 474 22,800 -1,920 Descending Cleveland Center
09:49AM 41.9942 -82.9328 98° East 394 453 21,000 -1,800 Descending Cleveland Center
09:50AM 41.9822 -82.8067 97° East 381 438 19,200 -1,560 Descending Cleveland Center
09:51AM 41.9722 -82.6778 96° East 365 420 17,900 -1,920 Descending Cleveland Center
09:52AM 41.9556 -82.5489 100° East 352 405 15,400 -1,860 Descending Cleveland Center
09:53AM 41.8883 -82.4631 136° Southeast 313 360 14,200 -1,200 Descending Cleveland Center
09:53AM 41.8636 -82.4483 156° South 325 374 13,900 -1,020 Descending Cleveland Center
09:54AM 41.8036 -82.4161 158° South 309 356 13,200 -1,140 Descending Cleveland Center
09:55AM 41.7253 -82.3636 153° Southeast 314 361 12,000 -1,440 Descending Cleveland Center
09:56AM 41.6900 -82.3433 157° South 310 357 11,300 -1,740 Descending Cleveland Center
09:56AM 41.6508 -82.3144 151° Southeast 309 356 10,300 -1,320 Descending Cleveland Center
09:56AM 41.6219 -82.2997 159° South 297 342 10,100 -900 Descending Cleveland Center
09:57AM 41.5786 -82.2708 153° Southeast 296 341 9,400 -1,260 Descending Cleveland Center
09:58AM 41.5125 -82.2303 155° Southeast 277 319 8,000 -1,500 Descending Cleveland Center
09:58AM 41.4856 -82.2131 154° Southeast 265 305 7,500 -1,440 Descending Cleveland Center
09:59AM 41.4400 -82.1842 155° Southeast 270 311 6,600 -1,380 Descending Cleveland Center
09:59AM 41.4194 -82.1725 157° South 256 295 6,100 -1,020 Descending Cleveland Center
10:00AM 41.3761 -82.1467 156° South 258 297 5,600 -1,560 Descending Cleveland Center
10:01AM 41.3511 -82.1294 153° Southeast 237 273 4,400 -1,920 Descending Cleveland Center
10:01AM 41.3144 -82.0733 131° Southeast 245 282 3,100 -840 Descending Cleveland Center
10:03AM 41.3281 -81.9961 77° East 210 242 2,800 -420 Descending Cleveland Center
10:04AM 41.3536 -81.9414 58° Northeast 153 176 2,300 -660 Descending Cleveland Center
10:05AM 41.3769 -81.9003 53° Northeast 125 144 1,500 -840 Descending Cleveland Center
10:07AM 41.4000 -81.8500 50° Northeast  Level FlightAware Approximate